Latest Weather Observations for Borroloola

IDD60801

Issued at 8:01 am CST Monday 1 May 2017 (issued every 30 minutes, with the page automatically refreshed every 10 minutes)

About weather observations | Map of weather stations | Latest weather observations for NT | Other Formats
Station Details ID: 014723 Name: BORROLOOLA AIRPORT Lat: -16.08 Lon: 136.30 Height: 16.1 m
Data from the previous 72 hours. | See also: Recent months at Borroloola
Date/Time
CST
Temp
°C
App
Temp
°C
Dew
Point
°C
Rel
Hum
%
Delta-T
°C
Wind Press
QNH
hPa
Press
MSL
hPa
Rain since
9am
mm
Dir  Spd
km/h
Gust
km/h
Spd
kts
Gust
kts
01/08:00am 17.5 18.3 12.4 72 2.8 CALM 0 0 0 0 1015.1 1015.0 0.0
01/07:30am 15.2 15.8 11.8 80 1.8 CALM 0 0 0 0 1014.8 1014.7 0.0
01/07:00am 12.9 13.1 10.6 86 1.2 CALM 0 0 0 0 1014.5 1014.4 0.0
01/06:30am 12.0 12.0 9.7 86 1.2 CALM 0 0 0 0 1014.2 1014.1 0.0
01/06:00am 12.1 12.0 9.5 84 1.3 CALM 0 0 0 0 1014.2 1014.1 0.0
01/05:30am 12.3 12.5 10.4 88 1.0 CALM 0 0 0 0 1014.1 1014.0 0.0
01/05:00am 11.9 11.8 9.3 84 1.3 CALM 0 0 0 0 1014.0 1013.9 0.0
01/04:30am 12.1 12.0 9.5 84 1.3 CALM 0 0 0 0 1013.9 1013.8 0.0
01/04:00am 12.1 12.1 9.7 85 1.2 CALM 0 0 0 0 1014.0 1013.9 0.0
01/03:30am 12.4 12.5 10.1 86 1.2 CALM 0 0 0 0 1013.8 1013.7 0.0
01/03:00am 12.4 12.3 9.6 83 1.4 CALM 0 0 0 0 1013.7 1013.6 0.0
01/02:30am 12.8 12.9 10.0 83 1.4 CALM 0 0 0 0 1013.7 1013.6 0.0
01/02:00am 13.1 13.1 9.9 81 1.6 CALM 0 0 0 0 1014.0 1013.9 0.0
01/01:30am 13.5 13.7 10.5 82 1.6 CALM 0 0 0 0 1014.3 1014.2 0.0
01/01:00am 13.1 13.1 9.7 80 1.7 CALM 0 0 0 0 1014.4 1014.3 0.0
01/12:30am 13.3 12.5 9.7 79 1.8 WSW 4 6 2 3 1014.4 1014.3 0.0
01/12:00am 13.8 14.0 10.4 80 1.8 CALM 0 0 0 0 1014.5 1014.4 0.0
 
Date/Time
CST
Temp
°C
App
Temp
°C
Dew
Point
°C
Rel
Hum
%
Delta-T
°C
Wind Press
QNH
hPa
Press
MSL
hPa
Rain since
9am
mm
Dir  Spd
km/h
Gust
km/h
Spd
kts
Gust
kts
30/11:30pm 13.8 13.8 9.8 77 2.1 CALM 0 0 0 0 1014.6 1014.5 0.0
30/11:00pm 14.7 14.8 10.1 74 2.4 CALM 0 0 0 0 1014.6 1014.5 0.0
30/10:30pm 16.1 16.6 11.5 74 2.5 CALM 0 0 0 0 1014.4 1014.3 0.0
30/10:00pm 16.4 16.9 11.6 73 2.6 CALM 0 0 0 0 1014.5 1014.4 0.0
30/09:30pm 16.3 16.4 10.2 67 3.2 CALM 0 0 0 0 1014.5 1014.4 0.0
30/09:00pm 17.1 17.2 10.2 64 3.7 CALM 0 0 0 0 1014.4 1014.3 0.0
30/08:30pm 18.1 17.6 9.2 56 4.7 NE 2 6 1 3 1014.2 1014.1 0.0
30/08:00pm 19.3 19.1 8.9 51 5.4 CALM 0 0 0 0 1014.0 1013.9 0.0
30/07:30pm 21.8 20.3 9.3 45 6.7 N 7 9 4 5 1013.8 1013.7 0.0
30/07:00pm 23.6 21.6 8.8 39 7.9 NNE 9 11 5 6 1013.4 1013.3 0.0
30/06:30pm 24.6 22.4 7.7 34 8.9 NNE 9 13 5 7 1013.3 1013.2 0.0
30/06:00pm 27.1 25.1 4.2 23 11.5 NNE 4 6 2 3 1012.8 1012.7 0.0
30/05:30pm 29.3 27.9 3.3 19 13.1 CALM 0 6 0 3 1012.4 1012.3 0.0
30/05:00pm 30.6 28.3 2.8 17 14.0 WNW 4 7 2 4 1012.1 1012.0 0.0
30/04:30pm 30.0 27.0 2.3 17 13.8 N 7 11 4 6 1011.9 1011.8 0.0
30/04:00pm 30.5 28.4 1.9 16 14.2 SSW 2 7 1 4 1011.9 1011.8 0.0
30/03:30pm 30.3 26.9 1.7 16 14.1 N 9 17 5 9 1011.9 1011.8 0.0
30/03:00pm 30.6 27.8 1.9 16 14.2 SE 6 11 3 6 1011.8 1011.7 0.0
30/02:30pm 31.1 27.9 3.2 17 14.2 N 9 17 5 9 1012.1 1012.0 0.0
30/02:00pm 30.6 27.1 3.6 18 13.8 NNW 11 17 6 9 1012.5 1012.4 0.0
30/01:30pm 30.2 26.8 1.6 16 14.1 NNE 9 13 5 7 1012.9 1012.8 0.0
30/01:00pm 30.3 27.0 2.5 17 13.9 ENE 9 20 5 11 1013.2 1013.1 0.0
30/12:30pm 30.1 26.7 4.0 19 13.4 ENE 11 17 6 9 1013.8 1013.7 0.0
30/12:00pm 29.0 25.8 3.1 19 13.0 SSE 9 15 5 8 1014.2 1014.1 0.0
30/11:30am 28.7 25.1 2.8 19 12.9 E 11 17 6 9 1014.7 1014.6 0.0
30/11:00am 28.5 24.5 2.7 19 12.8 ESE 13 20 7 11 1015.1 1015.0 0.0
30/10:30am 27.3 24.2 5.6 25 11.2 ESE 11 15 6 8 1015.7 1015.6 0.0
30/10:00am 25.7 23.5 5.3 27 10.4 SSE 6 11 3 6 1016.0 1015.9 0.0
30/09:30am 24.2 22.3 6.5 32 9.1 SSW 6 9 3 5 1016.1 1016.0 0.0
30/09:00am 21.8 19.9 7.6 40 7.4 SSE 7 9 4 5 1016.1 1016.0 0.0
30/08:30am 18.7 17.7 10.3 58 4.5 S 6 9 3 5 1015.9 1015.8 0.0
30/08:00am 15.4 14.9 10.8 74 2.4 SSE 4 7 2 4 1015.9 1015.8 0.0
30/07:30am 13.1 13.4 10.8 86 1.2 CALM 0 0 0 0 1015.4 1015.3 0.0
30/07:00am 9.8 9.4 8.1 89 0.8 CALM 0 0 0 0 1015.1 1015.0 0.0
30/06:30am 9.4 8.8 7.3 87 1.0 CALM 0 4 0 2 1014.7 1014.6 0.0
30/06:00am 9.4 8.0 7.2 86 1.0 SSE 4 7 2 4 1014.4 1014.3 0.0
30/05:30am 9.7 7.9 7.3 85 1.1 SSE 6 7 3 4 1014.4 1014.3 0.0
30/05:00am 9.8 9.2 7.4 85 1.1 CALM 0 0 0 0 1014.1 1014.0 0.0
30/04:30am 9.8 9.2 7.2 84 1.2 CALM 0 0 0 0 1013.9 1013.8 0.0
30/04:00am 10.1 9.5 7.3 83 1.3 CALM 0 0 0 0 1013.9 1013.8 0.0
30/03:30am 10.5 10.1 8.3 86 1.1 CALM 0 4 0 2 1013.9 1013.8 0.0
30/03:00am 10.5 10.0 7.7 83 1.3 CALM 0 0 0 0 1013.8 1013.7 0.0
30/02:30am 10.8 9.2 8.2 84 1.3 NNE 6 9 3 5 1013.9 1013.8 0.0
30/02:00am 10.9 10.4 8.0 82 1.4 CALM 0 0 0 0 1014.2 1014.1 0.0
30/01:30am 11.3 11.0 8.7 84 1.3 CALM 0 0 0 0 1014.5 1014.4 0.0
30/01:00am 12.1 11.9 9.1 82 1.5 CALM 0 0 0 0 1014.5 1014.4 0.0
30/12:30am 12.1 11.8 8.6 79 1.7 CALM 0 0 0 0 1014.7 1014.6 0.0
30/12:00am 12.0 11.5 7.9 76 2.0 CALM 0 0 0 0 1014.9 1014.8 0.0
 
Date/Time
CST
Temp
°C
App
Temp
°C
Dew
Point
°C
Rel
Hum
%
Delta-T
°C
Wind Press
QNH
hPa
Press
MSL
hPa
Rain since
9am
mm
Dir  Spd
km/h
Gust
km/h
Spd
kts
Gust
kts
29/11:30pm 12.9 12.0 9.2 78 1.9 NNE 4 7 2 4 1015.2 1015.1 0.0
29/11:00pm 13.3 13.0 8.8 74 2.3 CALM 0 6 0 3 1015.0 1014.9 0.0
29/10:30pm 14.0 13.8 9.0 72 2.5 CALM 0 0 0 0 1015.0 1014.9 0.0
29/10:00pm 14.6 14.3 8.8 68 2.9 CALM 0 0 0 0 1015.1 1015.0 0.0
29/09:30pm 15.5 15.3 10.3 71 2.7 NNE 2 6 1 3 1015.1 1015.0 0.0
29/09:00pm 15.7 14.8 9.4 66 3.3 NE 4 7 2 4 1015.1 1015.0 0.0
29/08:30pm 17.8 16.1 9.9 60 4.2 NNE 9 11 5 6 1015.0 1014.9 0.0
29/08:00pm 19.1 18.3 9.6 54 5.0 ENE 4 9 2 5 1015.0 1014.9 0.0
29/07:30pm 17.6 17.0 7.6 52 5.0 CALM 0 0 0 0 1014.6 1014.5 0.0
29/07:00pm 19.2 18.8 8.2 49 5.7 CALM 0 0 0 0 1014.4 1014.3 0.0
29/06:30pm 21.5 20.5 5.8 36 7.9 CALM 0 0 0 0 1014.1 1014.0 0.0
29/06:00pm 24.1 22.8 4.0 27 9.9 CALM 0 0 0 0 1013.9 1013.8 0.0
29/05:30pm 27.6 26.4 4.6 23 11.7 CALM 0 0 0 0 1013.7 1013.6 0.0
29/05:00pm 28.4 25.4 1.8 18 13.0 SW 7 11 4 6 1013.5 1013.4 0.0
29/04:30pm 29.7 27.0 0.3 15 14.1 SW 4 9 2 5 1013.3 1013.2 0.0
29/04:00pm 29.1 25.5 0.7 16 13.6 SSE 9 11 5 6 1013.2 1013.1 0.0
29/03:30pm 29.4 26.7 0.1 15 14.0 SW 4 9 2 5 1013.3 1013.2 0.0
29/03:00pm 29.2 25.2 0.8 16 13.7 ESE 11 15 6 8 1013.3 1013.2 0.0
29/02:30pm 28.6 24.6 0.3 16 13.4 SE 11 15 6 8 1013.5 1013.4 0.0
29/02:00pm 28.3 25.2 0.1 16 13.3 SSE 6 13 3 7 1013.6 1013.5 0.0
29/01:30pm 28.0 23.9 -0.1 16 13.2 ESE 11 17 6 9 1014.0 1013.9 0.0
29/01:00pm 27.6 23.6 0.4 17 12.9 SE 11 17 6 9 1014.3 1014.2 0.0
29/12:30pm 27.3 23.4 0.9 18 12.6 ESE 11 17 6 9 1014.6 1014.5 0.0
29/12:00pm 26.6 22.2 0.4 18 12.3 SE 13 20 7 11 1015.1 1015.0 0.0
29/11:30am 26.1 21.6 0.0 18 12.1 SE 13 24 7 13 1015.5 1015.4 0.0
29/11:00am 25.8 20.3 0.5 19 11.8 ESE 19 28 10 15 1016.1 1016.0 0.0
29/10:30am 24.6 18.6 0.8 21 11.1 SE 22 28 12 15 1016.1 1016.0 0.0
29/10:00am 23.8 18.3 0.8 22 10.6 SE 19 28 10 15 1016.6 1016.5 0.0
29/09:30am 22.8 16.4 1.2 24 10.0 SE 24 35 13 19 1016.7 1016.6 0.0
29/09:00am 21.0 16.6 2.8 30 8.6 SE 15 20 8 11 1016.5 1016.4 0.0
29/08:30am 19.4 16.0 4.0 36 7.3 SSE 11 17 6 9 1016.3 1016.2 0.0
29/08:00am 16.3 14.4 6.7 53 4.7 SSW 6 9 3 5 1016.1 1016.0 0.0
29/07:30am 14.2 13.5 6.8 61 3.6 CALM 0 0 0 0 1016.1 1016.0 0.0
29/07:00am 11.1 10.5 7.2 77 1.9 CALM 0 0 0 0 1015.7 1015.6 0.0
29/06:30am 10.1 9.5 7.2 82 1.4 CALM 0 0 0 0 1015.3 1015.2 0.0
29/06:00am 10.6 10.0 7.3 80 1.6 CALM 0 0 0 0 1015.2 1015.1 0.0
29/05:30am 10.8 9.0 7.1 78 1.8 SSW 6 6 3 3 1014.9 1014.8 0.0
29/05:00am 11.3 10.1 8.0 80 1.6 SSW 4 6 2 3 1014.7 1014.6 0.0
29/04:30am 11.8 11.5 8.5 80 1.6 CALM 0 0 0 0 1014.6 1014.5 0.0
29/04:00am 11.9 11.7 8.9 82 1.5 CALM 0 0 0 0 1015.0 1014.9 0.0
29/03:30am 12.1 11.8 8.8 80 1.6 CALM 0 0 0 0 1015.2 1015.1 0.0
29/03:00am 12.4 12.2 9.1 80 1.7 CALM 0 4 0 2 1015.1 1015.0 0.0
29/02:30am 12.6 12.5 9.6 82 1.5 CALM 0 0 0 0 1015.1 1015.0 0.0
29/02:00am 12.9 13.0 10.1 83 1.4 CALM 0 0 0 0 1015.2 1015.1 0.0
29/01:30am 13.2 13.2 9.8 80 1.7 CALM 0 0 0 0 1015.3 1015.2 0.0
29/01:00am 13.6 13.6 9.8 78 2.0 CALM 0 0 0 0 1015.6 1015.5 0.0
29/12:30am 13.8 13.7 9.3 74 2.3 CALM 0 0 0 0 1015.7 1015.6 0.0
29/12:00am 14.0 14.0 9.8 76 2.2 CALM 0 0 0 0 1015.9 1015.8 0.0
 
Date/Time
CST
Temp
°C
App
Temp
°C
Dew
Point
°C
Rel
Hum
%
Delta-T
°C
Wind Press
QNH
hPa
Press
MSL
hPa
Rain since
9am
mm
Dir  Spd
km/h
Gust
km/h
Spd
kts
Gust
kts
28/11:30pm 14.5 14.5 9.9 74 2.4 CALM 0 0 0 0 1016.0 1015.9 0.0
28/11:00pm 15.3 15.5 10.5 73 2.5 CALM 0 0 0 0 1016.2 1016.1 0.0
28/10:30pm 15.6 15.7 10.2 70 2.8 CALM 0 0 0 0 1016.3 1016.2 0.0
28/10:00pm 15.8 15.8 9.7 67 3.2 CALM 0 0 0 0 1016.2 1016.1 0.0
28/09:30pm 16.7 16.8 10.1 65 3.5 CALM 0 0 0 0 1016.1 1016.0 0.0
28/09:00pm 16.9 17.0 10.1 64 3.6 CALM 0 0 0 0 1015.8 1015.7 0.0
28/08:30pm 17.4 17.3 9.6 60 4.1 CALM 0 0 0 0 1015.7 1015.6 0.0
28/08:00pm 18.1 18.1 9.7 58 4.4 CALM 0 0 0 0 1015.4 1015.3 0.0
28/07:30pm 19.4 19.0 8.4 49 5.7 CALM 0 0 0 0 1015.0 1014.9 0.0
28/07:00pm 21.3 20.4 6.0 37 7.7 CALM 0 0 0 0 1014.7 1014.6 0.0
28/06:30pm 22.6 21.8 6.4 35 8.3 CALM 0 0 0 0 1014.4 1014.3 0.0
28/06:00pm 25.5 23.2 4.6 26 10.5 SSE 6 7 3 4 1014.1 1014.0 0.0
28/05:30pm 27.3 24.2 3.7 22 11.8 SSE 9 11 5 6 1014.0 1013.9 0.0
28/05:00pm 28.0 24.2 1.5 18 12.8 SSE 11 15 6 8 1013.7 1013.6 0.0
28/04:30pm 28.8 25.2 2.9 19 12.9 SSE 11 13 6 7 1013.6 1013.5 0.0
28/04:00pm 28.6 23.9 1.2 17 13.2 SSE 15 20 8 11 1013.5 1013.4 0.0
28/03:30pm 28.7 24.4 1.3 17 13.3 SE 13 20 7 11 1013.7 1013.6 0.0
28/03:00pm 29.1 25.4 2.4 18 13.2 ESE 11 22 6 12 1013.7 1013.6 0.0
28/02:30pm 28.5 24.2 1.1 17 13.2 SSE 13 24 7 13 1013.9 1013.8 0.0
28/02:00pm 28.0 23.7 0.7 17 13.0 SSE 13 26 7 14 1014.4 1014.3 0.0
28/01:30pm 27.7 22.6 0.5 17 12.9 SE 17 24 9 13 1014.7 1014.6 0.0
28/01:00pm 27.7 23.4 1.2 18 12.7 S 13 24 7 13 1015.2 1015.1 0.0
28/12:30pm 27.2 23.2 0.8 18 12.5 SSE 11 20 6 11 1015.8 1015.7 0.0
28/12:00pm 26.8 21.9 2.0 20 12.0 SE 17 26 9 14 1016.5 1016.4 0.0
28/11:30am 26.6 22.2 2.5 21 11.7 SE 15 20 8 11 1017.0 1016.9 0.0
28/11:00am 25.7 20.8 1.8 21 11.4 SSE 17 28 9 15 1017.5 1017.4 0.0
28/10:30am 24.8 19.2 1.0 21 11.1 SE 20 28 11 15 1017.7 1017.6 0.0
28/10:00am 24.3 18.2 0.6 21 11.0 SE 22 35 12 19 1017.8 1017.7 0.0
28/09:30am 24.0 16.8 1.0 22 10.7 SE 28 37 15 20 1017.6 1017.5 0.0
28/09:00am 23.4 17.5 1.7 24 10.2 SE 22 35 12 19 1017.4 1017.3 0.0
28/08:30am 22.1 17.3 2.8 28 9.1 SSE 17 24 9 13 1017.1 1017.0 0.0

Other Formats:

Comma delimited format used in spreadsheet applications
http://www.bom.gov.au/fwo/IDD60801/IDD60801.94152.axf

JavaScript Object Notation format (JSON) in row-major order
http://www.bom.gov.au/fwo/IDD60801/IDD60801.94152.json